createdAt,value
2022-11-06T09:34:02.121Z,9.90
2022-11-06T09:36:05.808Z,9.73
2022-11-06T09:38:11.696Z,14.10
2022-11-06T09:40:21.745Z,9.98
2022-11-06T09:42:31.590Z,9.52
2022-11-06T09:45:08.342Z,8.40
2022-11-06T09:47:20.689Z,8.00
2022-11-06T09:49:29.109Z,8.20
2022-11-06T09:51:38.545Z,8.70
2022-11-06T09:53:48.598Z,8.00
2022-11-06T09:55:53.197Z,8.43
2022-11-06T09:57:57.688Z,7.70
2022-11-06T10:00:02.047Z,6.50
2022-11-06T10:02:20.532Z,5.60
2022-11-06T10:04:36.386Z,6.45
2022-11-06T10:06:38.641Z,6.95
2022-11-06T10:08:44.030Z,6.05
2022-11-06T10:10:58.263Z,5.78
2022-11-06T10:13:06.397Z,6.18
2022-11-06T10:15:33.787Z,7.75
2022-11-06T10:17:45.772Z,8.13
2022-11-06T10:20:20.940Z,8.38
2022-11-06T10:22:32.213Z,8.00
2022-11-06T10:24:43.837Z,7.22
2022-11-06T10:26:52.334Z,5.55
2022-11-06T10:29:19.643Z,7.00
2022-11-06T10:31:56.333Z,7.57
2022-11-06T10:34:09.577Z,6.97
2022-11-06T10:36:18.629Z,7.07
2022-11-06T10:38:28.605Z,7.32
2022-11-06T10:40:33.198Z,7.55
2022-11-06T10:42:40.276Z,7.55
2022-11-06T10:44:59.730Z,7.35
2022-11-06T10:47:16.054Z,7.85
2022-11-06T10:49:30.170Z,9.70
2022-11-06T10:51:50.420Z,8.88
2022-11-06T10:53:58.448Z,8.23
2022-11-06T10:56:26.650Z,9.98
2022-11-06T10:58:32.754Z,10.15
2022-11-06T11:00:35.436Z,8.00
2022-11-06T11:02:43.872Z,9.50
2022-11-06T11:04:46.372Z,8.98
2022-11-06T11:06:48.679Z,9.98
2022-11-06T11:08:52.259Z,7.10
2022-11-06T11:11:06.008Z,10.70
2022-11-06T11:13:20.435Z,9.55
2022-11-06T11:15:25.031Z,8.95
2022-11-06T11:17:27.569Z,7.10
2022-11-06T11:19:44.468Z,8.07
2022-11-06T11:21:58.838Z,6.72
2022-11-06T11:24:01.233Z,7.80
2022-11-06T11:26:17.720Z,19.92
2022-11-06T11:28:26.703Z,8.23
2022-11-06T11:30:31.917Z,7.82
2022-11-06T11:32:34.210Z,11.35
2022-11-06T11:34:49.273Z,9.80
2022-11-06T11:37:01.289Z,9.43
2022-11-06T11:39:03.755Z,9.55
2022-11-06T11:41:13.707Z,6.55
2022-11-06T11:43:23.642Z,8.15
2022-11-06T11:45:25.975Z,12.05
2022-11-06T11:47:28.376Z,12.37
2022-11-06T11:49:32.403Z,9.15
2022-11-06T11:51:47.769Z,7.85
2022-11-06T11:53:51.664Z,10.48
2022-11-06T11:55:54.754Z,10.10
2022-11-06T11:58:00.531Z,10.45
2022-11-06T12:00:06.252Z,7.82
2022-11-06T12:02:38.835Z,9.48
2022-11-06T12:04:43.722Z,8.00
2022-11-06T12:06:51.701Z,6.87
2022-11-06T12:08:55.519Z,7.62
2022-11-06T12:11:06.521Z,9.65
2022-11-06T12:13:19.301Z,7.28
2022-11-06T12:15:28.121Z,7.80
2022-11-06T12:17:34.109Z,6.15
2022-11-06T12:19:40.236Z,7.05
2022-11-06T12:21:46.625Z,8.50
2022-11-06T12:23:57.053Z,10.55
2022-11-06T12:26:31.666Z,6.40
2022-11-06T12:28:38.180Z,6.05
2022-11-06T12:30:45.667Z,7.82
2022-11-06T12:33:52.027Z,9.10
2022-11-06T12:36:00.096Z,17.65
2022-11-06T12:38:47.009Z,9.68
2022-11-06T12:40:58.628Z,7.65
2022-11-06T12:43:05.004Z,6.18
2022-11-06T12:45:12.598Z,5.53
2022-11-06T12:47:26.536Z,5.60
2022-11-06T12:49:44.160Z,10.98
2022-11-06T12:51:49.111Z,8.18
2022-11-06T12:54:12.220Z,9.05
2022-11-06T12:56:25.016Z,6.50
2022-11-06T12:58:52.507Z,5.12
2022-11-06T13:01:14.750Z,5.32
2022-11-06T13:03:35.770Z,4.12
2022-11-06T13:07:47.103Z,6.15
2022-11-06T13:10:09.691Z,5.97
2022-11-06T13:12:22.758Z,6.22
2022-11-06T13:15:06.912Z,6.05
2022-11-06T13:17:25.380Z,6.07
2022-11-06T13:19:35.462Z,7.22
2022-11-06T13:22:15.973Z,5.93
2022-11-06T13:25:00.622Z,6.10
2022-11-06T13:27:24.025Z,6.68
2022-11-06T13:29:27.969Z,9.05
2022-11-06T13:31:54.930Z,6.55
2022-11-06T13:34:01.747Z,7.30
2022-11-06T13:36:06.703Z,5.78
2022-11-06T13:38:16.491Z,6.05
2022-11-06T13:40:36.175Z,7.87
2022-11-06T13:42:45.154Z,12.32
2022-11-06T13:44:48.761Z,6.97
2022-11-06T13:47:17.014Z,6.50
2022-11-06T13:49:49.073Z,10.52
2022-11-06T13:51:52.032Z,16.48
2022-11-06T13:54:03.567Z,8.80
2022-11-06T13:56:27.662Z,7.82
2022-11-06T13:59:16.624Z,7.10
2022-11-06T14:01:29.878Z,12.60
2022-11-06T14:03:53.778Z,20.88
2022-11-06T14:06:15.400Z,8.27
2022-11-06T14:08:42.584Z,5.90
2022-11-06T14:10:59.338Z,6.07
2022-11-06T14:13:04.072Z,6.62
2022-11-06T14:15:26.328Z,7.50
2022-11-06T14:17:29.361Z,6.78
2022-11-06T14:19:31.767Z,6.53
2022-11-06T14:21:37.418Z,6.20
2022-11-06T14:23:43.124Z,7.72
2022-11-06T14:25:46.926Z,24.67
2022-11-06T14:27:49.120Z,6.28
2022-11-06T14:29:55.350Z,5.87
2022-11-06T14:32:03.914Z,7.53
2022-11-06T14:34:27.787Z,8.13
2022-11-06T14:36:34.694Z,7.15
2022-11-06T14:38:37.945Z,7.95
2022-11-06T14:40:40.443Z,7.80
2022-11-06T14:42:47.448Z,9.82
2022-11-06T14:45:10.606Z,7.07
2022-11-06T14:47:26.861Z,7.50
2022-11-06T14:49:37.530Z,8.35
2022-11-06T14:51:40.197Z,7.43
2022-11-06T14:53:49.459Z,8.38
2022-11-06T14:56:03.596Z,8.55
2022-11-06T14:58:17.961Z,7.82
2022-11-06T15:00:48.841Z,10.38
2022-11-06T15:05:07.145Z,8.18
2022-11-06T15:07:44.747Z,11.45
2022-11-06T15:09:48.666Z,7.03
2022-11-06T15:11:52.966Z,10.77
2022-11-06T15:14:15.910Z,8.15
2022-11-06T15:16:18.450Z,8.35
2022-11-06T15:18:24.263Z,12.50
2022-11-06T15:20:31.730Z,7.72
2022-11-06T15:22:42.737Z,9.55
2022-11-06T15:25:05.691Z,12.02
2022-11-06T15:27:20.770Z,9.30
2022-11-06T15:29:29.629Z,12.07
2022-11-06T15:31:33.910Z,8.30
2022-11-06T15:33:45.027Z,7.07
2022-11-06T15:35:49.814Z,10.07
2022-11-06T15:38:03.475Z,7.93
2022-11-06T15:40:06.645Z,10.77
2022-11-06T15:42:13.764Z,7.65
2022-11-06T15:44:21.378Z,9.07
2022-11-06T15:46:30.018Z,9.68
2022-11-06T15:48:33.091Z,12.45
2022-11-06T15:50:37.405Z,9.05
2022-11-06T15:52:40.958Z,9.00
2022-11-06T15:54:44.376Z,9.23
2022-11-06T15:56:49.186Z,9.65
2022-11-06T15:59:10.671Z,10.20
2022-11-06T16:01:14.053Z,11.07
2022-11-06T16:03:25.517Z,10.20
2022-11-06T16:05:31.426Z,10.23
2022-11-06T16:07:33.740Z,10.98
2022-11-06T16:09:36.991Z,10.95
2022-11-06T16:11:39.571Z,9.15
2022-11-06T16:13:44.683Z,11.23
2022-11-06T16:15:50.134Z,14.43
2022-11-06T16:17:52.815Z,9.93
2022-11-06T16:19:59.954Z,11.60
2022-11-06T16:22:07.670Z,9.90
2022-11-06T16:24:15.660Z,11.23
2022-11-06T16:26:39.432Z,13.85
2022-11-06T16:28:44.911Z,11.80
2022-11-06T16:30:49.231Z,14.52
2022-11-06T16:32:52.094Z,10.52
2022-11-06T16:34:55.711Z,9.70
2022-11-06T16:37:04.108Z,10.45
2022-11-06T16:39:35.361Z,14.57
2022-11-06T16:42:19.897Z,10.43
2022-11-06T16:44:31.784Z,11.95
2022-11-06T16:47:05.932Z,15.00
2022-11-06T16:49:34.805Z,14.60
2022-11-06T16:51:37.360Z,16.23
2022-11-06T16:54:01.633Z,17.05
2022-11-06T16:56:07.468Z,13.95
2022-11-06T16:58:16.723Z,18.50
2022-11-06T17:00:22.661Z,19.80
2022-11-06T17:02:31.189Z,17.90
2022-11-06T17:04:34.015Z,17.05
2022-11-06T17:06:37.515Z,20.35
2022-11-06T17:08:41.780Z,24.95
2022-11-06T17:10:46.401Z,16.05
2022-11-06T17:12:49.002Z,17.15
2022-11-06T17:14:51.950Z,18.50
2022-11-06T17:16:59.150Z,18.15
2022-11-06T17:19:01.794Z,25.25
2022-11-06T17:21:13.709Z,22.65
2022-11-06T17:23:17.138Z,25.75
2022-11-06T17:25:20.197Z,22.50
2022-11-06T17:27:23.331Z,25.90
2022-11-06T17:29:26.648Z,24.08
2022-11-06T17:31:29.347Z,19.17
2022-11-06T17:33:32.632Z,21.08
2022-11-06T17:35:35.361Z,21.23
2022-11-06T17:37:40.884Z,21.08
2022-11-06T17:39:43.442Z,23.10
2022-11-06T17:41:46.100Z,20.60
2022-11-06T17:43:49.529Z,21.05
2022-11-06T17:45:53.410Z,19.37
2022-11-06T17:47:56.413Z,20.45
2022-11-06T17:49:59.248Z,20.60
2022-11-06T17:52:02.721Z,26.17
2022-11-06T17:54:05.944Z,23.05
2022-11-06T17:56:08.910Z,20.60
2022-11-06T17:58:11.826Z,19.37
2022-11-06T18:00:17.750Z,21.08
2022-11-06T18:02:35.264Z,22.13
2022-11-06T18:04:44.044Z,19.20
2022-11-06T18:06:50.464Z,25.52
2022-11-06T18:08:57.913Z,20.10
2022-11-06T18:11:00.892Z,23.27
2022-11-06T18:13:03.232Z,15.85
2022-11-06T18:15:06.350Z,22.15
2022-11-06T18:17:09.128Z,16.70
2022-11-06T18:19:16.419Z,20.12
2022-11-06T18:21:20.530Z,19.40
2022-11-06T18:23:23.318Z,19.08
2022-11-06T18:25:26.476Z,22.30
2022-11-06T18:27:29.598Z,20.35
2022-11-06T18:29:32.619Z,19.12
2022-11-06T18:31:36.003Z,20.45
2022-11-06T18:33:39.125Z,19.48
2022-11-06T18:35:41.939Z,20.02
2022-11-06T18:37:45.716Z,20.08
2022-11-06T18:39:48.285Z,20.12
2022-11-06T18:41:51.877Z,18.58
2022-11-06T18:43:58.871Z,19.73
2022-11-06T18:46:07.229Z,16.90
2022-11-06T18:48:10.015Z,19.80
2022-11-06T18:50:13.636Z,19.48
2022-11-06T18:52:32.395Z,22.75
2022-11-06T18:54:35.816Z,19.37
2022-11-06T18:56:39.357Z,21.77
2022-11-06T18:58:42.280Z,19.77
2022-11-06T19:00:48.094Z,17.85
2022-11-06T19:02:51.427Z,20.40
2022-11-06T19:04:57.570Z,17.70
2022-11-06T19:07:01.198Z,16.90
2022-11-06T19:09:04.265Z,18.15
2022-11-06T19:11:09.281Z,21.35
2022-11-06T19:13:12.788Z,20.90
2022-11-06T19:15:15.321Z,20.75
2022-11-06T19:17:18.421Z,20.35
2022-11-06T19:19:25.403Z,18.23
2022-11-06T19:21:30.735Z,16.25
2022-11-06T19:23:34.062Z,18.62
2022-11-06T19:25:41.033Z,18.90
2022-11-06T19:27:44.127Z,19.50
2022-11-06T19:29:50.676Z,20.23
2022-11-06T19:31:55.226Z,18.42
2022-11-06T19:34:02.174Z,18.80
2022-11-06T19:36:05.903Z,22.17
2022-11-06T19:38:08.895Z,54.78
2022-11-06T19:40:11.488Z,26.75
2022-11-06T19:42:14.448Z,26.23
2022-11-06T19:44:17.247Z,22.52
2022-11-06T19:46:26.893Z,21.70
2022-11-06T19:48:33.243Z,20.77
2022-11-06T19:51:05.274Z,25.45
2022-11-06T19:52:58.788Z,24.50
2022-11-06T19:55:26.606Z,23.20
2022-11-06T19:57:30.298Z,20.45
2022-11-06T19:59:33.517Z,22.02
2022-11-06T20:01:36.684Z,24.20
2022-11-06T20:03:39.559Z,33.63
2022-11-06T20:05:42.854Z,27.80
2022-11-06T20:07:46.495Z,23.92
2022-11-06T20:09:49.555Z,21.60
2022-11-06T20:11:52.925Z,42.80
2022-11-06T20:13:55.652Z,63.95
2022-11-06T20:15:58.339Z,22.62
2022-11-06T20:18:01.050Z,21.12
2022-11-06T20:20:04.057Z,23.55
2022-11-06T20:22:07.415Z,24.50
2022-11-06T20:24:11.238Z,24.35
2022-11-06T20:26:15.545Z,25.12
2022-11-06T20:28:18.625Z,25.15
2022-11-06T20:30:21.638Z,31.77
2022-11-06T20:32:24.507Z,23.55
2022-11-06T20:34:27.609Z,26.05
2022-11-06T20:36:31.545Z,20.55
2022-11-06T20:38:34.220Z,22.77
2022-11-06T20:40:37.209Z,24.27
2022-11-06T20:42:45.635Z,25.08
2022-11-06T20:44:48.385Z,31.48
2022-11-06T20:46:53.737Z,23.30
2022-11-06T20:49:00.970Z,23.08
2022-11-06T20:51:06.837Z,25.12
2022-11-06T20:53:10.154Z,22.45
2022-11-06T20:55:12.439Z,21.00
2022-11-06T20:57:16.736Z,23.70
2022-11-06T20:59:19.893Z,22.23
2022-11-06T21:01:25.761Z,21.98
2022-11-06T21:03:28.584Z,22.50
2022-11-06T21:05:31.552Z,22.62
2022-11-06T21:07:35.631Z,20.58
2022-11-06T21:09:38.247Z,21.35
2022-11-06T21:11:41.176Z,20.70
2022-11-06T21:13:45.479Z,22.05
2022-11-06T21:15:47.962Z,19.75
2022-11-06T21:17:50.875Z,21.02
2022-11-06T21:19:53.191Z,19.95
2022-11-06T21:21:56.914Z,21.08
2022-11-06T21:24:01.507Z,19.33
2022-11-06T21:26:08.693Z,18.92
2022-11-06T21:28:10.895Z,20.12
2022-11-06T21:30:13.408Z,19.30
2022-11-06T21:32:16.125Z,18.87
2022-11-06T21:34:19.348Z,21.60
2022-11-06T21:36:25.725Z,40.20
2022-11-06T21:38:27.923Z,24.27
2022-11-06T21:40:30.216Z,25.17
2022-11-06T21:42:32.782Z,24.08
2022-11-06T21:44:35.064Z,26.02
2022-11-06T21:46:41.215Z,28.58
2022-11-06T21:48:48.215Z,28.12
2022-11-06T21:50:50.739Z,26.20
2022-11-06T21:53:12.312Z,25.92
2022-11-06T21:55:33.526Z,23.58
2022-11-06T21:57:35.697Z,22.37
2022-11-06T21:59:41.586Z,31.62
2022-11-06T22:01:44.631Z,24.83
2022-11-06T22:03:47.314Z,31.15
2022-11-06T22:05:49.508Z,31.23
2022-11-06T22:07:51.747Z,25.80
2022-11-06T22:09:54.186Z,29.52
2022-11-06T22:11:56.471Z,23.15
2022-11-06T22:14:01.327Z,25.42
2022-11-06T22:16:03.953Z,18.02
2022-11-06T22:18:06.189Z,14.55
2022-11-06T22:20:09.069Z,13.75
2022-11-06T22:22:11.554Z,14.02
2022-11-06T22:24:14.759Z,16.42
2022-11-06T22:26:26.493Z,16.10
2022-11-06T22:28:29.004Z,16.73
2022-11-06T22:30:31.298Z,17.20
2022-11-06T22:32:33.476Z,16.20
2022-11-06T22:34:35.971Z,14.30
2022-11-06T22:36:38.773Z,13.27
2022-11-06T22:38:43.407Z,12.18
2022-11-06T22:40:56.588Z,14.90
2022-11-06T22:42:58.890Z,19.73
2022-11-06T22:45:01.357Z,15.50
2022-11-06T22:47:05.134Z,15.68
2022-11-06T22:49:07.377Z,15.65
2022-11-06T22:51:12.766Z,16.48
2022-11-06T22:53:15.495Z,15.77
2022-11-06T22:55:17.760Z,17.08
2022-11-06T22:57:19.929Z,16.58
2022-11-06T22:59:22.541Z,17.75
2022-11-06T23:01:27.446Z,18.27
2022-11-06T23:03:30.721Z,18.98
2022-11-06T23:05:33.326Z,17.25
2022-11-06T23:07:35.530Z,20.60
2022-11-06T23:09:37.881Z,18.65
2022-11-06T23:11:40.445Z,18.87
2022-11-06T23:13:43.995Z,19.15
2022-11-06T23:15:46.244Z,18.90
2022-11-06T23:17:49.051Z,21.80
2022-11-06T23:19:51.508Z,50.15
2022-11-06T23:22:13.144Z,20.75
2022-11-06T23:24:15.892Z,18.33
2022-11-06T23:26:18.961Z,23.35
2022-11-06T23:28:21.580Z,27.90
